Niagara Falls, Canada
Current Conditions -  °F | °C
As of 5:53 PM on Tuesday 21 Oct 2014 (Local Time) from KIAG Reporting Station
Drizzle Drizzle  
Wind Chill: 43°   Ceiling: 500
Heat Index: 49°   Visibility: 6mi
Dew Point: 47°   Wind: 15mph
Humidity: 93%   Direction: 30°NNE
Pressure: 29.92"   Gusts: NA
Location:  43.08°N, 79.08°W
Report Text: KIAG 211953Z 03013KT 6SM -DZ BR OVC005 09/08 A2992 RMK AO2 DZB1854E09B49 SLP136 P0000 T00940083
Loading
Personal Weather Stations






























Interactive Weather Map
Tropical Storm Tracking
New forecast layout! Learn more

10-Day Weather Forecast

Advertisements
Track Severe Weather on mobile